Aviation Digital Data Service (ADDS)

Output produced by METARs form (1955 UTC 17 November 2019)
found at http://www.aviationweather.gov/metar/data/
 
METAR text: VIDP 171930Z 25005KT 3000 HZ NSC 18/12 Q1015 NOSIG
Conditions at: VIDP (INDIRA GANDHI/DE, IN) observed 1930 UTC 17 November 2019
Temperature: 18.0°C (64°F)
Dewpoint: 12.0°C (54°F) [RH = 68%]
Pressure (altimeter): 29.97 inches Hg (1015.0 mb)
Winds: from the WSW (250 degrees) at 6 MPH (5 knots; 2.6 m/s)
Visibility: 1.86 miles (2.99 km)
Ceiling: at least 12,000 feet AGL
Clouds: sky clear below 12,000 feet AGL
Weather: HZ  (haze)

METAR text: VIDP 171900Z 26005KT 3000 HZ NSC 18/12 Q1015 NOSIG
Conditions at: VIDP (INDIRA GANDHI/DE, IN) observed 1900 UTC 17 November 2019
Temperature: 18.0°C (64°F)
Dewpoint: 12.0°C (54°F) [RH = 68%]
Pressure (altimeter): 29.97 inches Hg (1015.0 mb)
Winds: from the W (260 degrees) at 6 MPH (5 knots; 2.6 m/s)
Visibility: 1.86 miles (2.99 km)
Ceiling: at least 12,000 feet AGL
Clouds: sky clear below 12,000 feet AGL
Weather: HZ  (haze)

METAR text: VIDP 171830Z 26006KT 3000 HZ NSC 19/12 Q1015 NOSIG
Conditions at: VIDP (INDIRA GANDHI/DE, IN) observed 1830 UTC 17 November 2019
Temperature: 19.0°C (66°F)
Dewpoint: 12.0°C (54°F) [RH = 64%]
Pressure (altimeter): 29.97 inches Hg (1015.0 mb)
Winds: from the W (260 degrees) at 7 MPH (6 knots; 3.1 m/s)
Visibility: 1.86 miles (2.99 km)
Ceiling: at least 12,000 feet AGL
Clouds: sky clear below 12,000 feet AGL
Weather: HZ  (haze)

METAR text: VIDP 171800Z 26006KT 3000 HZ NSC 20/12 Q1015 NOSIG
Conditions at: VIDP (INDIRA GANDHI/DE, IN) observed 1800 UTC 17 November 2019
Temperature: 20.0°C (68°F)
Dewpoint: 12.0°C (54°F) [RH = 60%]
Pressure (altimeter): 29.97 inches Hg (1015.0 mb)
Winds: from the W (260 degrees) at 7 MPH (6 knots; 3.1 m/s)
Visibility: 1.86 miles (2.99 km)
Ceiling: at least 12,000 feet AGL
Clouds: sky clear below 12,000 feet AGL
Weather: HZ  (haze)

METAR text: VIDP 171730Z 27006KT 3000 HZ NSC 20/12 Q1015 NOSIG
Conditions at: VIDP (INDIRA GANDHI/DE, IN) observed 1730 UTC 17 November 2019
Temperature: 20.0°C (68°F)
Dewpoint: 12.0°C (54°F) [RH = 60%]
Pressure (altimeter): 29.97 inches Hg (1015.0 mb)
Winds: from the W (270 degrees) at 7 MPH (6 knots; 3.1 m/s)
Visibility: 1.86 miles (2.99 km)
Ceiling: at least 12,000 feet AGL
Clouds: sky clear below 12,000 feet AGL
Weather: HZ  (haze)

METAR text: VIDP 171700Z 27006KT 3000 HZ NSC 21/12 Q1015 NOSIG
Conditions at: VIDP (INDIRA GANDHI/DE, IN) observed 1700 UTC 17 November 2019
Temperature: 21.0°C (70°F)
Dewpoint: 12.0°C (54°F) [RH = 56%]
Pressure (altimeter): 29.97 inches Hg (1015.0 mb)
Winds: from the W (270 degrees) at 7 MPH (6 knots; 3.1 m/s)
Visibility: 1.86 miles (2.99 km)
Ceiling: at least 12,000 feet AGL
Clouds: sky clear below 12,000 feet AGL
Weather: HZ  (haze)

METAR text: VIDP 171630Z 28007KT 3000 HZ NSC 21/12 Q1015 NOSIG
Conditions at: VIDP (INDIRA GANDHI/DE, IN) observed 1630 UTC 17 November 2019
Temperature: 21.0°C (70°F)
Dewpoint: 12.0°C (54°F) [RH = 56%]
Pressure (altimeter): 29.97 inches Hg (1015.0 mb)
Winds: from the W (280 degrees) at 8 MPH (7 knots; 3.6 m/s)
Visibility: 1.86 miles (2.99 km)
Ceiling: at least 12,000 feet AGL
Clouds: sky clear below 12,000 feet AGL
Weather: HZ  (haze)

METAR text: VIDP 171600Z 28007KT 3000 HZ NSC 21/12 Q1015 NOSIG
Conditions at: VIDP (INDIRA GANDHI/DE, IN) observed 1600 UTC 17 November 2019
Temperature: 21.0°C (70°F)
Dewpoint: 12.0°C (54°F) [RH = 56%]
Pressure (altimeter): 29.97 inches Hg (1015.0 mb)
Winds: from the W (280 degrees) at 8 MPH (7 knots; 3.6 m/s)
Visibility: 1.86 miles (2.99 km)
Ceiling: at least 12,000 feet AGL
Clouds: sky clear below 12,000 feet AGL
Weather: HZ  (haze)

METAR text: VIDP 171530Z 28006KT 3000 HZ NSC 21/13 Q1015 NOSIG
Conditions at: VIDP (INDIRA GANDHI/DE, IN) observed 1530 UTC 17 November 2019
Temperature: 21.0°C (70°F)
Dewpoint: 13.0°C (55°F) [RH = 60%]
Pressure (altimeter): 29.97 inches Hg (1015.0 mb)
Winds: from the W (280 degrees) at 7 MPH (6 knots; 3.1 m/s)
Visibility: 1.86 miles (2.99 km)
Ceiling: at least 12,000 feet AGL
Clouds: sky clear below 12,000 feet AGL
Weather: HZ  (haze)

METAR text: VIDP 171500Z 26005KT 3000 HZ NSC 22/13 Q1015 NOSIG
Conditions at: VIDP (INDIRA GANDHI/DE, IN) observed 1500 UTC 17 November 2019
Temperature: 22.0°C (72°F)
Dewpoint: 13.0°C (55°F) [RH = 57%]
Pressure (altimeter): 29.97 inches Hg (1015.0 mb)
Winds: from the W (260 degrees) at 6 MPH (5 knots; 2.6 m/s)
Visibility: 1.86 miles (2.99 km)
Ceiling: at least 12,000 feet AGL
Clouds: sky clear below 12,000 feet AGL
Weather: HZ  (haze)

METAR text: VIDP 171430Z 27005KT 3000 HZ NSC 22/13 Q1015 NOSIG
Conditions at: VIDP (INDIRA GANDHI/DE, IN) observed 1430 UTC 17 November 2019
Temperature: 22.0°C (72°F)
Dewpoint: 13.0°C (55°F) [RH = 57%]
Pressure (altimeter): 29.97 inches Hg (1015.0 mb)
Winds: from the W (270 degrees) at 6 MPH (5 knots; 2.6 m/s)
Visibility: 1.86 miles (2.99 km)
Ceiling: at least 12,000 feet AGL
Clouds: sky clear below 12,000 feet AGL
Weather: HZ  (haze)

METAR text: VIDP 171400Z 27006KT 3000 HZ NSC 22/13 Q1015 BECMG 3000 HZ
Conditions at: VIDP (INDIRA GANDHI/DE, IN) observed 1400 UTC 17 November 2019
Temperature: 22.0°C (72°F)
Dewpoint: 13.0°C (55°F) [RH = 57%]
Pressure (altimeter): 29.97 inches Hg (1015.0 mb)
Winds: from the W (270 degrees) at 7 MPH (6 knots; 3.1 m/s)
Visibility: 1.86 miles (2.99 km)
Ceiling: at least 12,000 feet AGL
Clouds: sky clear below 12,000 feet AGL
Weather: HZ  (haze)

METAR text: VIDP 171330Z 27006KT 3500 HZ NSC 23/13 Q1014 NOSIG
Conditions at: VIDP (INDIRA GANDHI/DE, IN) observed 1330 UTC 17 November 2019
Temperature: 23.0°C (73°F)
Dewpoint: 13.0°C (55°F) [RH = 53%]
Pressure (altimeter): 29.94 inches Hg (1014.0 mb)
Winds: from the W (270 degrees) at 7 MPH (6 knots; 3.1 m/s)
Visibility: 2.17 miles (3.49 km)
Ceiling: at least 12,000 feet AGL
Clouds: sky clear below 12,000 feet AGL
Weather: HZ  (haze)

METAR text: VIDP 171300Z 27006KT 3500 HZ NSC 25/13 Q1014 NOSIG
Conditions at: VIDP (INDIRA GANDHI/DE, IN) observed 1300 UTC 17 November 2019
Temperature: 25.0°C (77°F)
Dewpoint: 13.0°C (55°F) [RH = 47%]
Pressure (altimeter): 29.94 inches Hg (1014.0 mb)
Winds: from the W (270 degrees) at 7 MPH (6 knots; 3.1 m/s)
Visibility: 2.17 miles (3.49 km)
Ceiling: at least 12,000 feet AGL
Clouds: sky clear below 12,000 feet AGL
Weather: HZ  (haze)

METAR text: VIDP 171230Z 28006KT 4000 HZ NSC 26/12 Q1014 NOSIG
Conditions at: VIDP (INDIRA GANDHI/DE, IN) observed 1230 UTC 17 November 2019
Temperature: 26.0°C (79°F)
Dewpoint: 12.0°C (54°F) [RH = 42%]
Pressure (altimeter): 29.94 inches Hg (1014.0 mb)
Winds: from the W (280 degrees) at 7 MPH (6 knots; 3.1 m/s)
Visibility: 2.49 miles (4.01 km)
Ceiling: at least 12,000 feet AGL
Clouds: sky clear below 12,000 feet AGL
Weather: HZ  (haze)

METAR text: VIDP 171200Z 30008KT 4000 HZ NSC 27/12 Q1014 NOSIG
Conditions at: VIDP (INDIRA GANDHI/DE, IN) observed 1200 UTC 17 November 2019
Temperature: 27.0°C (81°F)
Dewpoint: 12.0°C (54°F) [RH = 39%]
Pressure (altimeter): 29.94 inches Hg (1014.0 mb)
Winds: from the WNW (300 degrees) at 9 MPH (8 knots; 4.1 m/s)
Visibility: 2.49 miles (4.01 km)
Ceiling: at least 12,000 feet AGL
Clouds: sky clear below 12,000 feet AGL
Weather: HZ  (haze)

METAR text: VIDP 171130Z 30006G16KT 4000 HZ NSC 28/12 Q1014 NOSIG
Conditions at: VIDP (INDIRA GANDHI/DE, IN) observed 1130 UTC 17 November 2019
Temperature: 28.0°C (82°F)
Dewpoint: 12.0°C (54°F) [RH = 37%]
Pressure (altimeter): 29.94 inches Hg (1014.0 mb)
Winds: from the WNW (300 degrees) at 7 MPH (6 knots; 3.1 m/s)
gusting to 18 MPH (16 knots; 8.2 m/s)
Visibility: 2.49 miles (4.01 km)
Ceiling: at least 12,000 feet AGL
Clouds: sky clear below 12,000 feet AGL
Weather: HZ  (haze)

METAR text: VIDP 171100Z 29006G16KT 4000 HZ NSC 28/12 Q1014 NOSIG
Conditions at: VIDP (INDIRA GANDHI/DE, IN) observed 1100 UTC 17 November 2019
Temperature: 28.0°C (82°F)
Dewpoint: 12.0°C (54°F) [RH = 37%]
Pressure (altimeter): 29.94 inches Hg (1014.0 mb)
Winds: from the WNW (290 degrees) at 7 MPH (6 knots; 3.1 m/s)
gusting to 18 MPH (16 knots; 8.2 m/s)
Visibility: 2.49 miles (4.01 km)
Ceiling: at least 12,000 feet AGL
Clouds: sky clear below 12,000 feet AGL
Weather: HZ  (haze)

METAR text: VIDP 171030Z 29008G18KT 4000 HZ NSC 28/12 Q1014 NOSIG
Conditions at: VIDP (INDIRA GANDHI/DE, IN) observed 1030 UTC 17 November 2019
Temperature: 28.0°C (82°F)
Dewpoint: 12.0°C (54°F) [RH = 37%]
Pressure (altimeter): 29.94 inches Hg (1014.0 mb)
Winds: from the WNW (290 degrees) at 9 MPH (8 knots; 4.1 m/s)
gusting to 21 MPH (18 knots; 9.3 m/s)
Visibility: 2.49 miles (4.01 km)
Ceiling: at least 12,000 feet AGL
Clouds: sky clear below 12,000 feet AGL
Weather: HZ  (haze)

METAR text: VIDP 171000Z 29008G18KT 4000 HZ NSC 28/12 Q1014 NOSIG
Conditions at: VIDP (INDIRA GANDHI/DE, IN) observed 1000 UTC 17 November 2019
Temperature: 28.0°C (82°F)
Dewpoint: 12.0°C (54°F) [RH = 37%]
Pressure (altimeter): 29.94 inches Hg (1014.0 mb)
Winds: from the WNW (290 degrees) at 9 MPH (8 knots; 4.1 m/s)
gusting to 21 MPH (18 knots; 9.3 m/s)
Visibility: 2.49 miles (4.01 km)
Ceiling: at least 12,000 feet AGL
Clouds: sky clear below 12,000 feet AGL
Weather: HZ  (haze)

METAR text: VIDP 170930Z 29008G18KT 4000 HZ NSC 28/12 Q1014 NOSIG
Conditions at: VIDP (INDIRA GANDHI/DE, IN) observed 0930 UTC 17 November 2019
Temperature: 28.0°C (82°F)
Dewpoint: 12.0°C (54°F) [RH = 37%]
Pressure (altimeter): 29.94 inches Hg (1014.0 mb)
Winds: from the WNW (290 degrees) at 9 MPH (8 knots; 4.1 m/s)
gusting to 21 MPH (18 knots; 9.3 m/s)
Visibility: 2.49 miles (4.01 km)
Ceiling: at least 12,000 feet AGL
Clouds: sky clear below 12,000 feet AGL
Weather: HZ  (haze)

METAR text: VIDP 170900Z 30008G18KT 4000 HZ NSC 28/13 Q1014 NOSIG
Conditions at: VIDP (INDIRA GANDHI/DE, IN) observed 0900 UTC 17 November 2019
Temperature: 28.0°C (82°F)
Dewpoint: 13.0°C (55°F) [RH = 40%]
Pressure (altimeter): 29.94 inches Hg (1014.0 mb)
Winds: from the WNW (300 degrees) at 9 MPH (8 knots; 4.1 m/s)
gusting to 21 MPH (18 knots; 9.3 m/s)
Visibility: 2.49 miles (4.01 km)
Ceiling: at least 12,000 feet AGL
Clouds: sky clear below 12,000 feet AGL
Weather: HZ  (haze)

METAR text: VIDP 170830Z 29008G18KT 4000 HZ NSC 28/13 Q1015 NOSIG
Conditions at: VIDP (INDIRA GANDHI/DE, IN) observed 0830 UTC 17 November 2019
Temperature: 28.0°C (82°F)
Dewpoint: 13.0°C (55°F) [RH = 40%]
Pressure (altimeter): 29.97 inches Hg (1015.0 mb)
Winds: from the WNW (290 degrees) at 9 MPH (8 knots; 4.1 m/s)
gusting to 21 MPH (18 knots; 9.3 m/s)
Visibility: 2.49 miles (4.01 km)
Ceiling: at least 12,000 feet AGL
Clouds: sky clear below 12,000 feet AGL
Weather: HZ  (haze)

METAR text: VIDP 170800Z 30008G18KT 4000 HZ NSC 27/13 Q1015 NOSIG
Conditions at: VIDP (INDIRA GANDHI/DE, IN) observed 0800 UTC 17 November 2019
Temperature: 27.0°C (81°F)
Dewpoint: 13.0°C (55°F) [RH = 42%]
Pressure (altimeter): 29.97 inches Hg (1015.0 mb)
Winds: from the WNW (300 degrees) at 9 MPH (8 knots; 4.1 m/s)
gusting to 21 MPH (18 knots; 9.3 m/s)
Visibility: 2.49 miles (4.01 km)
Ceiling: at least 12,000 feet AGL
Clouds: sky clear below 12,000 feet AGL
Weather: HZ  (haze)

METAR text: VIDP 170730Z 32008G18KT 3500 HZ NSC 27/13 Q1016 NOSIG
Conditions at: VIDP (INDIRA GANDHI/DE, IN) observed 0730 UTC 17 November 2019
Temperature: 27.0°C (81°F)
Dewpoint: 13.0°C (55°F) [RH = 42%]
Pressure (altimeter): 30.00 inches Hg (1016.0 mb)
Winds: from the NW (320 degrees) at 9 MPH (8 knots; 4.1 m/s)
gusting to 21 MPH (18 knots; 9.3 m/s)
Visibility: 2.17 miles (3.49 km)
Ceiling: at least 12,000 feet AGL
Clouds: sky clear below 12,000 feet AGL
Weather: HZ  (haze)

METAR text: VIDP 170700Z 30008G18KT 2800 HZ NSC 26/13 Q1016 BECMG 3000 HZ
Conditions at: VIDP (INDIRA GANDHI/DE, IN) observed 0700 UTC 17 November 2019
Temperature: 26.0°C (79°F)
Dewpoint: 13.0°C (55°F) [RH = 45%]
Pressure (altimeter): 30.00 inches Hg (1016.0 mb)
Winds: from the WNW (300 degrees) at 9 MPH (8 knots; 4.1 m/s)
gusting to 21 MPH (18 knots; 9.3 m/s)
Visibility: 1.74 miles (2.80 km)
Ceiling: at least 12,000 feet AGL
Clouds: sky clear below 12,000 feet AGL
Weather: HZ  (haze)

METAR text: VIDP 170630Z 30008G18KT 2500 HZ NSC 25/14 Q1017 NOSIG
Conditions at: VIDP (INDIRA GANDHI/DE, IN) observed 0630 UTC 17 November 2019
Temperature: 25.0°C (77°F)
Dewpoint: 14.0°C (57°F) [RH = 50%]
Pressure (altimeter): 30.03 inches Hg (1017.0 mb)
Winds: from the WNW (300 degrees) at 9 MPH (8 knots; 4.1 m/s)
gusting to 21 MPH (18 knots; 9.3 m/s)
Visibility: 1.55 miles (2.49 km)
Ceiling: at least 12,000 feet AGL
Clouds: sky clear below 12,000 feet AGL
Weather: HZ  (haze)

METAR text: VIDP 170600Z 29006G16KT 2200 HZ NSC 24/14 Q1017 NOSIG
Conditions at: VIDP (INDIRA GANDHI/DE, IN) observed 0600 UTC 17 November 2019
Temperature: 24.0°C (75°F)
Dewpoint: 14.0°C (57°F) [RH = 54%]
Pressure (altimeter): 30.03 inches Hg (1017.0 mb)
Winds: from the WNW (290 degrees) at 7 MPH (6 knots; 3.1 m/s)
gusting to 18 MPH (16 knots; 8.2 m/s)
Visibility: 1.37 miles (2.20 km)
Ceiling: at least 12,000 feet AGL
Clouds: sky clear below 12,000 feet AGL
Weather: HZ  (haze)

METAR text: VIDP 170530Z 28006G16KT 1500 R28/1300 R29/P2000 FU NSC 23/14 Q1018 NOSIG
Conditions at: VIDP (INDIRA GANDHI/DE, IN) observed 0530 UTC 17 November 2019
Temperature: 23.0°C (73°F)
Dewpoint: 14.0°C (57°F) [RH = 57%]
Pressure (altimeter): 30.06 inches Hg (1018.0 mb)
Winds: from the W (280 degrees) at 7 MPH (6 knots; 3.1 m/s)
gusting to 18 MPH (16 knots; 8.2 m/s)
Visibility: 0.93 miles (1.50 km)
Ceiling: at least 12,000 feet AGL
Clouds: sky clear below 12,000 feet AGL
Weather: FU  (smoke)

METAR text: VIDP 170500Z 27009KT 1200 R28/1200 R29/P2000 FU NSC 21/15 Q1018 BECMG 1500 FU
Conditions at: VIDP (INDIRA GANDHI/DE, IN) observed 0500 UTC 17 November 2019
Temperature: 21.0°C (70°F)
Dewpoint: 15.0°C (59°F) [RH = 69%]
Pressure (altimeter): 30.06 inches Hg (1018.0 mb)
Winds: from the W (270 degrees) at 10 MPH (9 knots; 4.6 m/s)
Visibility: 0.75 miles (1.21 km)
Ceiling: at least 12,000 feet AGL
Clouds: sky clear below 12,000 feet AGL
Weather: FU  (smoke)

METAR text: VIDP 170430Z 28009KT 1100 R28/1200 R29/P2000 FU NSC 20/14 Q1018 NOSIG
Conditions at: VIDP (INDIRA GANDHI/DE, IN) observed 0430 UTC 17 November 2019
Temperature: 20.0°C (68°F)
Dewpoint: 14.0°C (57°F) [RH = 68%]
Pressure (altimeter): 30.06 inches Hg (1018.0 mb)
Winds: from the W (280 degrees) at 10 MPH (9 knots; 4.6 m/s)
Visibility: 0.68 miles (1.09 km)
Ceiling: at least 12,000 feet AGL
Clouds: sky clear below 12,000 feet AGL
Weather: FU  (smoke)

METAR text: VIDP 170400Z 28009KT 1100 R28/1200 R29/P2000 FU NSC 19/14 Q1018 NOSIG
Conditions at: VIDP (INDIRA GANDHI/DE, IN) observed 0400 UTC 17 November 2019
Temperature: 19.0°C (66°F)
Dewpoint: 14.0°C (57°F) [RH = 73%]
Pressure (altimeter): 30.06 inches Hg (1018.0 mb)
Winds: from the W (280 degrees) at 10 MPH (9 knots; 4.6 m/s)
Visibility: 0.68 miles (1.09 km)
Ceiling: at least 12,000 feet AGL
Clouds: sky clear below 12,000 feet AGL
Weather: FU  (smoke)

METAR text: VIDP 170330Z 27009KT 1000 R28/1200 R29/P2000 BR NSC 18/14 Q1018 NOSIG
Conditions at: VIDP (INDIRA GANDHI/DE, IN) observed 0330 UTC 17 November 2019
Temperature: 18.0°C (64°F)
Dewpoint: 14.0°C (57°F) [RH = 77%]
Pressure (altimeter): 30.06 inches Hg (1018.0 mb)
Winds: from the W (270 degrees) at 10 MPH (9 knots; 4.6 m/s)
Visibility: 0.62 miles (1.00 km)
Ceiling: at least 12,000 feet AGL
Clouds: sky clear below 12,000 feet AGL
Weather: BR  (mist)

METAR text: VIDP 170300Z 27009KT 1000 R28/1100 R29/P2000 BR NSC 17/15 Q1017 NOSIG
Conditions at: VIDP (INDIRA GANDHI/DE, IN) observed 0300 UTC 17 November 2019
Temperature: 17.0°C (63°F)
Dewpoint: 15.0°C (59°F) [RH = 88%]
Pressure (altimeter): 30.03 inches Hg (1017.0 mb)
Winds: from the W (270 degrees) at 10 MPH (9 knots; 4.6 m/s)
Visibility: 0.62 miles (1.00 km)
Ceiling: at least 12,000 feet AGL
Clouds: sky clear below 12,000 feet AGL
Weather: BR  (mist)

METAR text: VIDP 170230Z 26008KT 1000 R28/1200 R29/P2000 BR NSC 16/15 Q1017 NOSIG
Conditions at: VIDP (INDIRA GANDHI/DE, IN) observed 0230 UTC 17 November 2019
Temperature: 16.0°C (61°F)
Dewpoint: 15.0°C (59°F) [RH = 94%]
Pressure (altimeter): 30.03 inches Hg (1017.0 mb)
Winds: from the W (260 degrees) at 9 MPH (8 knots; 4.1 m/s)
Visibility: 0.62 miles (1.00 km)
Ceiling: at least 12,000 feet AGL
Clouds: sky clear below 12,000 feet AGL
Weather: BR  (mist)

METAR text: VIDP 170200Z 26006KT 0800 R28/1200 R29/2000 MIFG NSC 15/13 Q1017 NOSIG
Conditions at: VIDP (INDIRA GANDHI/DE, IN) observed 0200 UTC 17 November 2019
Temperature: 15.0°C (59°F)
Dewpoint: 13.0°C (55°F) [RH = 88%]
Pressure (altimeter): 30.03 inches Hg (1017.0 mb)
Winds: from the W (260 degrees) at 7 MPH (6 knots; 3.1 m/s)
Visibility: 0.50 miles (0.80 km)
Ceiling: at least 12,000 feet AGL
Clouds: sky clear below 12,000 feet AGL
Weather: MIFG  (shallow fog)

METAR text: VIDP 170130Z 27006KT 0800 R28/1400 R29/2000 MIFG NSC 15/13 Q1016 NOSIG
Conditions at: VIDP (INDIRA GANDHI/DE, IN) observed 0130 UTC 17 November 2019
Temperature: 15.0°C (59°F)
Dewpoint: 13.0°C (55°F) [RH = 88%]
Pressure (altimeter): 30.00 inches Hg (1016.0 mb)
Winds: from the W (270 degrees) at 7 MPH (6 knots; 3.1 m/s)
Visibility: 0.50 miles (0.80 km)
Ceiling: at least 12,000 feet AGL
Clouds: sky clear below 12,000 feet AGL
Weather: MIFG  (shallow fog)

METAR text: VIDP 170100Z 26006KT 1200 R28/2000 R29/2000 BR NSC 15/13 Q1016 BECMG 0800 MIFG
Conditions at: VIDP (INDIRA GANDHI/DE, IN) observed 0100 UTC 17 November 2019
Temperature: 15.0°C (59°F)
Dewpoint: 13.0°C (55°F) [RH = 88%]
Pressure (altimeter): 30.00 inches Hg (1016.0 mb)
Winds: from the W (260 degrees) at 7 MPH (6 knots; 3.1 m/s)
Visibility: 0.75 miles (1.21 km)
Ceiling: at least 12,000 feet AGL
Clouds: sky clear below 12,000 feet AGL
Weather: BR  (mist)

METAR text: VIDP 170030Z 25006KT 1500 R28/2000 R29/2000 BR NSC 15/13 Q1015 NOSIG
Conditions at: VIDP (INDIRA GANDHI/DE, IN) observed 0030 UTC 17 November 2019
Temperature: 15.0°C (59°F)
Dewpoint: 13.0°C (55°F) [RH = 88%]
Pressure (altimeter): 29.97 inches Hg (1015.0 mb)
Winds: from the WSW (250 degrees) at 7 MPH (6 knots; 3.1 m/s)
Visibility: 0.93 miles (1.50 km)
Ceiling: at least 12,000 feet AGL
Clouds: sky clear below 12,000 feet AGL
Weather: BR  (mist)

METAR text: VIDP 170000Z 25005KT 1500 R28/2000 R29/2000 BR NSC 15/13 Q1015 NOSIG
Conditions at: VIDP (INDIRA GANDHI/DE, IN) observed 0000 UTC 17 November 2019
Temperature: 15.0°C (59°F)
Dewpoint: 13.0°C (55°F) [RH = 88%]
Pressure (altimeter): 29.97 inches Hg (1015.0 mb)
Winds: from the WSW (250 degrees) at 6 MPH (5 knots; 2.6 m/s)
Visibility: 0.93 miles (1.50 km)
Ceiling: at least 12,000 feet AGL
Clouds: sky clear below 12,000 feet AGL
Weather: BR  (mist)

METAR text: VIDP 162330Z 27005KT 1500 R28/2000 R29/2000 BR NSC 15/13 Q1015 NOSIG
Conditions at: VIDP (INDIRA GANDHI/DE, IN) observed 2330 UTC 16 November 2019
Temperature: 15.0°C (59°F)
Dewpoint: 13.0°C (55°F) [RH = 88%]
Pressure (altimeter): 29.97 inches Hg (1015.0 mb)
Winds: from the W (270 degrees) at 6 MPH (5 knots; 2.6 m/s)
Visibility: 0.93 miles (1.50 km)
Ceiling: at least 12,000 feet AGL
Clouds: sky clear below 12,000 feet AGL
Weather: BR  (mist)

METAR text: VIDP 162300Z 27005KT 1800 R28/2000 R29/2000 BR NSC 15/13 Q1015 BECMG 1500 BR
Conditions at: VIDP (INDIRA GANDHI/DE, IN) observed 2300 UTC 16 November 2019
Temperature: 15.0°C (59°F)
Dewpoint: 13.0°C (55°F) [RH = 88%]
Pressure (altimeter): 29.97 inches Hg (1015.0 mb)
Winds: from the W (270 degrees) at 6 MPH (5 knots; 2.6 m/s)
Visibility: 1.12 miles (1.80 km)
Ceiling: at least 12,000 feet AGL
Clouds: sky clear below 12,000 feet AGL
Weather: BR  (mist)

METAR text: VIDP 162230Z 26004KT 1900 R28/2000 R29/2000 BR NSC 16/13 Q1015 NOSIG
Conditions at: VIDP (INDIRA GANDHI/DE, IN) observed 2230 UTC 16 November 2019
Temperature: 16.0°C (61°F)
Dewpoint: 13.0°C (55°F) [RH = 82%]
Pressure (altimeter): 29.97 inches Hg (1015.0 mb)
Winds: from the W (260 degrees) at 5 MPH (4 knots; 2.1 m/s)
Visibility: 1.18 miles (1.90 km)
Ceiling: at least 12,000 feet AGL
Clouds: sky clear below 12,000 feet AGL
Weather: BR  (mist)

METAR text: VIDP 162200Z 27005KT 1800 R28/2000 R29/2000 BR NSC 15/13 Q1015 BECMG 1500 BR
Conditions at: VIDP (INDIRA GANDHI/DE, IN) observed 2200 UTC 16 November 2019
Temperature: 15.0°C (59°F)
Dewpoint: 13.0°C (55°F) [RH = 88%]
Pressure (altimeter): 29.97 inches Hg (1015.0 mb)
Winds: from the W (270 degrees) at 6 MPH (5 knots; 2.6 m/s)
Visibility: 1.12 miles (1.80 km)
Ceiling: at least 12,000 feet AGL
Clouds: sky clear below 12,000 feet AGL
Weather: BR  (mist)

METAR text: VIDP 162130Z 26005KT 2200 HZ NSC 16/13 Q1016 NOSIG
Conditions at: VIDP (INDIRA GANDHI/DE, IN) observed 2130 UTC 16 November 2019
Temperature: 16.0°C (61°F)
Dewpoint: 13.0°C (55°F) [RH = 82%]
Pressure (altimeter): 30.00 inches Hg (1016.0 mb)
Winds: from the W (260 degrees) at 6 MPH (5 knots; 2.6 m/s)
Visibility: 1.37 miles (2.20 km)
Ceiling: at least 12,000 feet AGL
Clouds: sky clear below 12,000 feet AGL
Weather: HZ  (haze)

METAR text: VIDP 162100Z 26005KT 2200 HZ NSC 17/13 Q1016 NOSIG
Conditions at: VIDP (INDIRA GANDHI/DE, IN) observed 2100 UTC 16 November 2019
Temperature: 17.0°C (63°F)
Dewpoint: 13.0°C (55°F) [RH = 77%]
Pressure (altimeter): 30.00 inches Hg (1016.0 mb)
Winds: from the W (260 degrees) at 6 MPH (5 knots; 2.6 m/s)
Visibility: 1.37 miles (2.20 km)
Ceiling: at least 12,000 feet AGL
Clouds: sky clear below 12,000 feet AGL
Weather: HZ  (haze)

METAR text: VIDP 162030Z 25005KT 2200 HZ NSC 17/13 Q1016 NOSIG
Conditions at: VIDP (INDIRA GANDHI/DE, IN) observed 2030 UTC 16 November 2019
Temperature: 17.0°C (63°F)
Dewpoint: 13.0°C (55°F) [RH = 77%]
Pressure (altimeter): 30.00 inches Hg (1016.0 mb)
Winds: from the WSW (250 degrees) at 6 MPH (5 knots; 2.6 m/s)
Visibility: 1.37 miles (2.20 km)
Ceiling: at least 12,000 feet AGL
Clouds: sky clear below 12,000 feet AGL
Weather: HZ  (haze)

METAR text: VIDP 162000Z 26006KT 2200 HZ NSC 18/13 Q1016 NOSIG
Conditions at: VIDP (INDIRA GANDHI/DE, IN) observed 2000 UTC 16 November 2019
Temperature: 18.0°C (64°F)
Dewpoint: 13.0°C (55°F) [RH = 73%]
Pressure (altimeter): 30.00 inches Hg (1016.0 mb)
Winds: from the W (260 degrees) at 7 MPH (6 knots; 3.1 m/s)
Visibility: 1.37 miles (2.20 km)
Ceiling: at least 12,000 feet AGL
Clouds: sky clear below 12,000 feet AGL
Weather: HZ  (haze)

METAR text: VIDP 161930Z 27006KT 2200 HZ NSC 18/13 Q1016 NOSIG
Conditions at: VIDP (INDIRA GANDHI/DE, IN) observed 1930 UTC 16 November 2019
Temperature: 18.0°C (64°F)
Dewpoint: 13.0°C (55°F) [RH = 73%]
Pressure (altimeter): 30.00 inches Hg (1016.0 mb)
Winds: from the W (270 degrees) at 7 MPH (6 knots; 3.1 m/s)
Visibility: 1.37 miles (2.20 km)
Ceiling: at least 12,000 feet AGL
Clouds: sky clear below 12,000 feet AGL
Weather: HZ  (haze)

METAR text: VIDP 161900Z 26006KT 2200 HZ NSC 18/13 Q1016 NOSIG
Conditions at: VIDP (INDIRA GANDHI/DE, IN) observed 1900 UTC 16 November 2019
Temperature: 18.0°C (64°F)
Dewpoint: 13.0°C (55°F) [RH = 73%]
Pressure (altimeter): 30.00 inches Hg (1016.0 mb)
Winds: from the W (260 degrees) at 7 MPH (6 knots; 3.1 m/s)
Visibility: 1.37 miles (2.20 km)
Ceiling: at least 12,000 feet AGL
Clouds: sky clear below 12,000 feet AGL
Weather: HZ  (haze)

METAR text: VIDP 161830Z 27005KT 2200 HZ NSC 18/13 Q1016 NOSIG
Conditions at: VIDP (INDIRA GANDHI/DE, IN) observed 1830 UTC 16 November 2019
Temperature: 18.0°C (64°F)
Dewpoint: 13.0°C (55°F) [RH = 73%]
Pressure (altimeter): 30.00 inches Hg (1016.0 mb)
Winds: from the W (270 degrees) at 6 MPH (5 knots; 2.6 m/s)
Visibility: 1.37 miles (2.20 km)
Ceiling: at least 12,000 feet AGL
Clouds: sky clear below 12,000 feet AGL
Weather: HZ  (haze)

METAR text: VIDP 161800Z 25005KT 2500 HZ NSC 19/13 Q1016 NOSIG
Conditions at: VIDP (INDIRA GANDHI/DE, IN) observed 1800 UTC 16 November 2019
Temperature: 19.0°C (66°F)
Dewpoint: 13.0°C (55°F) [RH = 68%]
Pressure (altimeter): 30.00 inches Hg (1016.0 mb)
Winds: from the WSW (250 degrees) at 6 MPH (5 knots; 2.6 m/s)
Visibility: 1.55 miles (2.49 km)
Ceiling: at least 12,000 feet AGL
Clouds: sky clear below 12,000 feet AGL
Weather: HZ  (haze)

METAR text: VIDP 161730Z 26006KT 2800 HZ NSC 19/13 Q1016 NOSIG
Conditions at: VIDP (INDIRA GANDHI/DE, IN) observed 1730 UTC 16 November 2019
Temperature: 19.0°C (66°F)
Dewpoint: 13.0°C (55°F) [RH = 68%]
Pressure (altimeter): 30.00 inches Hg (1016.0 mb)
Winds: from the W (260 degrees) at 7 MPH (6 knots; 3.1 m/s)
Visibility: 1.74 miles (2.80 km)
Ceiling: at least 12,000 feet AGL
Clouds: sky clear below 12,000 feet AGL
Weather: HZ  (haze)

METAR text: VIDP 161700Z 27007KT 2800 HZ NSC 19/13 Q1016 NOSIG
Conditions at: VIDP (INDIRA GANDHI/DE, IN) observed 1700 UTC 16 November 2019
Temperature: 19.0°C (66°F)
Dewpoint: 13.0°C (55°F) [RH = 68%]
Pressure (altimeter): 30.00 inches Hg (1016.0 mb)
Winds: from the W (270 degrees) at 8 MPH (7 knots; 3.6 m/s)
Visibility: 1.74 miles (2.80 km)
Ceiling: at least 12,000 feet AGL
Clouds: sky clear below 12,000 feet AGL
Weather: HZ  (haze)

METAR text: VIDP 161630Z 26006KT 2800 HZ NSC 19/13 Q1017 NOSIG
Conditions at: VIDP (INDIRA GANDHI/DE, IN) observed 1630 UTC 16 November 2019
Temperature: 19.0°C (66°F)
Dewpoint: 13.0°C (55°F) [RH = 68%]
Pressure (altimeter): 30.03 inches Hg (1017.0 mb)
Winds: from the W (260 degrees) at 7 MPH (6 knots; 3.1 m/s)
Visibility: 1.74 miles (2.80 km)
Ceiling: at least 12,000 feet AGL
Clouds: sky clear below 12,000 feet AGL
Weather: HZ  (haze)

METAR text: VIDP 161600Z 26005KT 2800 HZ NSC 20/13 Q1017 NOSIG
Conditions at: VIDP (INDIRA GANDHI/DE, IN) observed 1600 UTC 16 November 2019
Temperature: 20.0°C (68°F)
Dewpoint: 13.0°C (55°F) [RH = 64%]
Pressure (altimeter): 30.03 inches Hg (1017.0 mb)
Winds: from the W (260 degrees) at 6 MPH (5 knots; 2.6 m/s)
Visibility: 1.74 miles (2.80 km)
Ceiling: at least 12,000 feet AGL
Clouds: sky clear below 12,000 feet AGL
Weather: HZ  (haze)

METAR text: VIDP 161530Z 27006KT 2800 HZ NSC 21/13 Q1017 NOSIG
Conditions at: VIDP (INDIRA GANDHI/DE, IN) observed 1530 UTC 16 November 2019
Temperature: 21.0°C (70°F)
Dewpoint: 13.0°C (55°F) [RH = 60%]
Pressure (altimeter): 30.03 inches Hg (1017.0 mb)
Winds: from the W (270 degrees) at 7 MPH (6 knots; 3.1 m/s)
Visibility: 1.74 miles (2.80 km)
Ceiling: at least 12,000 feet AGL
Clouds: sky clear below 12,000 feet AGL
Weather: HZ  (haze)

METAR text: VIDP 161500Z 25004KT 2800 HZ NSC 22/13 Q1016 NOSIG
Conditions at: VIDP (INDIRA GANDHI/DE, IN) observed 1500 UTC 16 November 2019
Temperature: 22.0°C (72°F)
Dewpoint: 13.0°C (55°F) [RH = 57%]
Pressure (altimeter): 30.00 inches Hg (1016.0 mb)
Winds: from the WSW (250 degrees) at 5 MPH (4 knots; 2.1 m/s)
Visibility: 1.74 miles (2.80 km)
Ceiling: at least 12,000 feet AGL
Clouds: sky clear below 12,000 feet AGL
Weather: HZ  (haze)

METAR text: VIDP 161430Z 27005KT 2800 HZ NSC 23/13 Q1016 NOSIG
Conditions at: VIDP (INDIRA GANDHI/DE, IN) observed 1430 UTC 16 November 2019
Temperature: 23.0°C (73°F)
Dewpoint: 13.0°C (55°F) [RH = 53%]
Pressure (altimeter): 30.00 inches Hg (1016.0 mb)
Winds: from the W (270 degrees) at 6 MPH (5 knots; 2.6 m/s)
Visibility: 1.74 miles (2.80 km)
Ceiling: at least 12,000 feet AGL
Clouds: sky clear below 12,000 feet AGL
Weather: HZ  (haze)

METAR text: VIDP 161400Z 28005KT 2800 HZ NSC 23/13 Q1016 NOSIG
Conditions at: VIDP (INDIRA GANDHI/DE, IN) observed 1400 UTC 16 November 2019
Temperature: 23.0°C (73°F)
Dewpoint: 13.0°C (55°F) [RH = 53%]
Pressure (altimeter): 30.00 inches Hg (1016.0 mb)
Winds: from the W (280 degrees) at 6 MPH (5 knots; 2.6 m/s)
Visibility: 1.74 miles (2.80 km)
Ceiling: at least 12,000 feet AGL
Clouds: sky clear below 12,000 feet AGL
Weather: HZ  (haze)

METAR text: VIDP 161330Z 28005KT 2800 HZ NSC 23/13 Q1016 NOSIG
Conditions at: VIDP (INDIRA GANDHI/DE, IN) observed 1330 UTC 16 November 2019
Temperature: 23.0°C (73°F)
Dewpoint: 13.0°C (55°F) [RH = 53%]
Pressure (altimeter): 30.00 inches Hg (1016.0 mb)
Winds: from the W (280 degrees) at 6 MPH (5 knots; 2.6 m/s)
Visibility: 1.74 miles (2.80 km)
Ceiling: at least 12,000 feet AGL
Clouds: sky clear below 12,000 feet AGL
Weather: HZ  (haze)

METAR text: VIDP 161300Z 29006KT 2500 HZ NSC 24/13 Q1016 NOSIG
Conditions at: VIDP (INDIRA GANDHI/DE, IN) observed 1300 UTC 16 November 2019
Temperature: 24.0°C (75°F)
Dewpoint: 13.0°C (55°F) [RH = 50%]
Pressure (altimeter): 30.00 inches Hg (1016.0 mb)
Winds: from the WNW (290 degrees) at 7 MPH (6 knots; 3.1 m/s)
Visibility: 1.55 miles (2.49 km)
Ceiling: at least 12,000 feet AGL
Clouds: sky clear below 12,000 feet AGL
Weather: HZ  (haze)

METAR text: VIDP 161230Z 30006KT 2200 HZ NSC 24/13 Q1015 NOSIG
Conditions at: VIDP (INDIRA GANDHI/DE, IN) observed 1230 UTC 16 November 2019
Temperature: 24.0°C (75°F)
Dewpoint: 13.0°C (55°F) [RH = 50%]
Pressure (altimeter): 29.97 inches Hg (1015.0 mb)
Winds: from the WNW (300 degrees) at 7 MPH (6 knots; 3.1 m/s)
Visibility: 1.37 miles (2.20 km)
Ceiling: at least 12,000 feet AGL
Clouds: sky clear below 12,000 feet AGL
Weather: HZ  (haze)

METAR text: VIDP 161200Z 32007KT 2200 HZ NSC 25/13 Q1015 NOSIG
Conditions at: VIDP (INDIRA GANDHI/DE, IN) observed 1200 UTC 16 November 2019
Temperature: 25.0°C (77°F)
Dewpoint: 13.0°C (55°F) [RH = 47%]
Pressure (altimeter): 29.97 inches Hg (1015.0 mb)
Winds: from the NW (320 degrees) at 8 MPH (7 knots; 3.6 m/s)
Visibility: 1.37 miles (2.20 km)
Ceiling: at least 12,000 feet AGL
Clouds: sky clear below 12,000 feet AGL
Weather: HZ  (haze)

METAR text: VIDP 161130Z 33006G16KT 2200 HZ NSC 26/13 Q1015 NOSIG
Conditions at: VIDP (INDIRA GANDHI/DE, IN) observed 1130 UTC 16 November 2019
Temperature: 26.0°C (79°F)
Dewpoint: 13.0°C (55°F) [RH = 45%]
Pressure (altimeter): 29.97 inches Hg (1015.0 mb)
Winds: from the NNW (330 degrees) at 7 MPH (6 knots; 3.1 m/s)
gusting to 18 MPH (16 knots; 8.2 m/s)
Visibility: 1.37 miles (2.20 km)
Ceiling: at least 12,000 feet AGL
Clouds: sky clear below 12,000 feet AGL
Weather: HZ  (haze)

METAR text: VIDP 161100Z 30010G20KT 2200 HZ NSC 26/13 Q1015 NOSIG
Conditions at: VIDP (INDIRA GANDHI/DE, IN) observed 1100 UTC 16 November 2019
Temperature: 26.0°C (79°F)
Dewpoint: 13.0°C (55°F) [RH = 45%]
Pressure (altimeter): 29.97 inches Hg (1015.0 mb)
Winds: from the WNW (300 degrees) at 12 MPH (10 knots; 5.1 m/s)
gusting to 23 MPH (20 knots; 10.3 m/s)
Visibility: 1.37 miles (2.20 km)
Ceiling: at least 12,000 feet AGL
Clouds: sky clear below 12,000 feet AGL
Weather: HZ  (haze)

METAR text: VIDP 161030Z 30010G20KT 2200 HZ NSC 27/13 Q1015 NOSIG
Conditions at: VIDP (INDIRA GANDHI/DE, IN) observed 1030 UTC 16 November 2019
Temperature: 27.0°C (81°F)
Dewpoint: 13.0°C (55°F) [RH = 42%]
Pressure (altimeter): 29.97 inches Hg (1015.0 mb)
Winds: from the WNW (300 degrees) at 12 MPH (10 knots; 5.1 m/s)
gusting to 23 MPH (20 knots; 10.3 m/s)
Visibility: 1.37 miles (2.20 km)
Ceiling: at least 12,000 feet AGL
Clouds: sky clear below 12,000 feet AGL
Weather: HZ  (haze)

METAR text: VIDP 161000Z 32010G20KT 2500 HZ NSC 28/12 Q1015 NOSIG
Conditions at: VIDP (INDIRA GANDHI/DE, IN) observed 1000 UTC 16 November 2019
Temperature: 28.0°C (82°F)
Dewpoint: 12.0°C (54°F) [RH = 37%]
Pressure (altimeter): 29.97 inches Hg (1015.0 mb)
Winds: from the NW (320 degrees) at 12 MPH (10 knots; 5.1 m/s)
gusting to 23 MPH (20 knots; 10.3 m/s)
Visibility: 1.55 miles (2.49 km)
Ceiling: at least 12,000 feet AGL
Clouds: sky clear below 12,000 feet AGL
Weather: HZ  (haze)

METAR text: VIDP 160930Z 32008G18KT 2500 HZ NSC 28/13 Q1015 NOSIG
Conditions at: VIDP (INDIRA GANDHI/DE, IN) observed 0930 UTC 16 November 2019
Temperature: 28.0°C (82°F)
Dewpoint: 13.0°C (55°F) [RH = 40%]
Pressure (altimeter): 29.97 inches Hg (1015.0 mb)
Winds: from the NW (320 degrees) at 9 MPH (8 knots; 4.1 m/s)
gusting to 21 MPH (18 knots; 9.3 m/s)
Visibility: 1.55 miles (2.49 km)
Ceiling: at least 12,000 feet AGL
Clouds: sky clear below 12,000 feet AGL
Weather: HZ  (haze)

METAR text: VIDP 160900Z 29008G18KT 2200 HZ NSC 28/13 Q1015 NOSIG
Conditions at: VIDP (INDIRA GANDHI/DE, IN) observed 0900 UTC 16 November 2019
Temperature: 28.0°C (82°F)
Dewpoint: 13.0°C (55°F) [RH = 40%]
Pressure (altimeter): 29.97 inches Hg (1015.0 mb)
Winds: from the WNW (290 degrees) at 9 MPH (8 knots; 4.1 m/s)
gusting to 21 MPH (18 knots; 9.3 m/s)
Visibility: 1.37 miles (2.20 km)
Ceiling: at least 12,000 feet AGL
Clouds: sky clear below 12,000 feet AGL
Weather: HZ  (haze)

METAR text: VIDP 160830Z 31010KT 2200 HZ NSC 28/13 Q1015 NOSIG
Conditions at: VIDP (INDIRA GANDHI/DE, IN) observed 0830 UTC 16 November 2019
Temperature: 28.0°C (82°F)
Dewpoint: 13.0°C (55°F) [RH = 40%]
Pressure (altimeter): 29.97 inches Hg (1015.0 mb)
Winds: from the NW (310 degrees) at 12 MPH (10 knots; 5.1 m/s)
Visibility: 1.37 miles (2.20 km)
Ceiling: at least 12,000 feet AGL
Clouds: sky clear below 12,000 feet AGL
Weather: HZ  (haze)

METAR text: VIDP 160800Z 30012KT 1100 R28/1300 R29/1300 FU FEW100 28/13 Q1015 BECMG 1500 FU
Conditions at: VIDP (INDIRA GANDHI/DE, IN) observed 0800 UTC 16 November 2019
Temperature: 28.0°C (82°F)
Dewpoint: 13.0°C (55°F) [RH = 40%]
Pressure (altimeter): 29.97 inches Hg (1015.0 mb)
Winds: from the WNW (300 degrees) at 14 MPH (12 knots; 6.2 m/s)
Visibility: 0.68 miles (1.09 km)
Ceiling: at least 12,000 feet AGL
Clouds: few clouds at 10000 feet AGL
Weather: FU  (smoke)

Forecast for: VIDP (INDIRA GANDHI/DE, IN)
Text: TAF VIDP 171700Z 1718/1824 28008KT 3000 HZ NSC
Forecast period: 1800 to 2200 UTC 17 November 2019
Forecast type: FROM: standard forecast or significant change
Winds: from the W (280 degrees) at 9 MPH (8 knots; 4.1 m/s)
Visibility: 1.86 miles (2.99 km)
Ceiling: unknown
Clouds: missing
Weather: HZ  (haze)
Text: BECMG 1722/1723 1500 BR
Forecast period: 2200 UTC 17 November 2019 to 0100 UTC 18 November 2019
Forecast type: BECOMING: Conditions expected to become as follows by 2300 UTC 17 November 2019
Winds: from the W (280 degrees) at 9 MPH (8 knots; 4.1 m/s)
Visibility: 0.93 miles (1.50 km)
Ceiling: unknown
Clouds: missing
Weather: BR  (mist)
Text: BECMG 1801/1803 0800 MIFG
Forecast period: 0100 to 0400 UTC 18 November 2019
Forecast type: BECOMING: Conditions expected to become as follows by 0300 UTC 18 November 2019
Winds: from the W (280 degrees) at 9 MPH (8 knots; 4.1 m/s)
Visibility: 0.50 miles (0.80 km)
Ceiling: unknown
Clouds: missing
Weather: MIFG  (shallow fog)
Text: BECMG 1804/1806 2000 HZ FEW100
Forecast period: 0400 to 0700 UTC 18 November 2019
Forecast type: BECOMING: Conditions expected to become as follows by 0600 UTC 18 November 2019
Winds: from the W (280 degrees) at 9 MPH (8 knots; 4.1 m/s)
Visibility: 1.24 miles (2.00 km)
Ceiling: at least 12,000 feet AGL
Clouds: few clouds at 10000 feet AGL
Weather: HZ  (haze)
Text: BECMG 1807/1808 29008G18KT 4000 HZ
Forecast period: 0700 to 1200 UTC 18 November 2019
Forecast type: BECOMING: Conditions expected to become as follows by 0800 UTC 18 November 2019
Winds: from the WNW (290 degrees) at 9 MPH (8 knots; 4.1 m/s)
gusting to 21 MPH (18 knots; 9.3 m/s)
Visibility: 2.49 miles (4.01 km)
Ceiling: at least 12,000 feet AGL
Clouds: few clouds at 10000 feet AGL
Weather: HZ  (haze)
Text: BECMG 1812/1814 27005KT 3000 HZ NSC
Forecast period: 1200 to 2000 UTC 18 November 2019
Forecast type: BECOMING: Conditions expected to become as follows by 1400 UTC 18 November 2019
Winds: from the W (270 degrees) at 6 MPH (5 knots; 2.6 m/s)
Visibility: 1.86 miles (2.99 km)
Ceiling: unknown
Clouds: missing
Weather: HZ  (haze)
Text: BECMG 1820/1822 1000 BR
Forecast period: 2000 UTC 18 November 2019 to 0000 UTC 19 November 2019
Forecast type: BECOMING: Conditions expected to become as follows by 2200 UTC 18 November 2019
Winds: from the W (270 degrees) at 6 MPH (5 knots; 2.6 m/s)
Visibility: 0.62 miles (1.00 km)
Ceiling: unknown
Clouds: missing
Weather: BR  (mist)